Time;durP1;ratioP1;P1;durP2;ratioP2;P2;SDS_P1;SDS_P2;PMS_P1;PMS_P2;Temp;Humidity;BMP_temperature;BMP_pressure;BME280_temperature;BME280_humidity;BME280_pressure;Samples;Min_cycle;Max_cycle;Signal;HPM_P1;HPM_P2
2023/09/18 00:01:26;;;;;;;8.98;8.07;;;19.60;99.90;;;;;;4973086;28;20074;-40
2023/09/18 00:03:54;;;;;;;10.32;8.55;;;19.60;99.90;;;;;;4973187;28;20047;-40
2023/09/18 00:06:23;;;;;;;9.32;8.40;;;19.50;99.90;;;;;;4974503;28;20047;-39
2023/09/18 00:08:51;;;;;;;9.48;8.32;;;19.50;99.90;;;;;;4974541;28;20065;-40
2023/09/18 00:11:19;;;;;;;9.70;8.63;;;19.40;99.90;;;;;;4975161;28;20467;-40
2023/09/18 00:13:46;;;;;;;10.20;9.05;;;19.40;99.90;;;;;;4967885;28;20660;-39
2023/09/18 00:16:13;;;;;;;9.40;7.78;;;19.40;99.90;;;;;;4971515;28;20047;-41
2023/09/18 00:18:42;;;;;;;9.82;8.35;;;19.30;99.90;;;;;;4973827;28;20054;-40
2023/09/18 00:21:10;;;;;;;9.98;8.55;;;19.20;99.90;;;;;;4952011;28;20061;-40
2023/09/18 00:23:37;;;;;;;9.82;8.82;;;19.20;99.90;;;;;;4974850;28;20058;-40
2023/09/18 00:26:05;;;;;;;9.98;8.18;;;19.10;99.90;;;;;;4971732;28;20062;-39
2023/09/18 00:28:32;;;;;;;9.48;8.40;;;19.10;99.90;;;;;;4978087;28;20085;-40
2023/09/18 00:30:59;;;;;;;9.70;8.32;;;19.10;99.90;;;;;;4981006;28;20053;-41
2023/09/18 00:33:27;;;;;;;12.43;8.27;;;19.00;99.90;;;;;;4986474;28;20162;-39
2023/09/18 00:35:54;;;;;;;9.88;8.88;;;19.00;99.90;;;;;;4958218;28;20157;-39
2023/09/18 00:38:21;;;;;;;10.30;8.65;;;18.90;99.90;;;;;;4977767;28;20427;-41
2023/09/18 00:40:49;;;;;;;9.45;8.43;;;18.90;99.90;;;;;;4974893;28;20515;-40
2023/09/18 00:43:17;;;;;;;9.95;8.65;;;18.90;99.90;;;;;;4954927;28;20047;-40
2023/09/18 00:45:48;;;;;;;9.57;8.30;;;18.90;99.90;;;;;;4967319;28;20055;-40
2023/09/18 00:48:16;;;;;;;9.50;8.30;;;18.90;99.90;;;;;;4973781;28;20054;-37
2023/09/18 00:50:44;;;;;;;9.55;8.18;;;18.90;99.90;;;;;;4974502;28;20065;-39
2023/09/18 00:53:19;;;;;;;11.13;8.85;;;18.90;99.90;;;;;;4979639;28;20043;-40
2023/09/18 00:55:49;;;;;;;9.07;8.18;;;18.90;99.90;;;;;;4957306;28;20549;-39
2023/09/18 00:58:16;;;;;;;11.43;8.05;;;18.90;99.90;;;;;;4977722;28;20126;-39
2023/09/18 01:00:44;;;;;;;12.32;8.27;;;18.90;99.90;;;;;;4956521;28;20054;-38
2023/09/18 01:03:12;;;;;;;9.77;8.65;;;18.90;99.90;;;;;;4958952;28;20097;-40
2023/09/18 01:05:39;;;;;;;9.43;7.93;;;18.90;99.90;;;;;;4974396;28;21706;-37
2023/09/18 01:08:07;;;;;;;10.63;8.40;;;18.90;99.90;;;;;;4965161;28;20051;-39
2023/09/18 01:10:48;;;;;;;9.57;8.05;;;18.80;99.90;;;;;;4980878;28;20055;-41
2023/09/18 01:13:23;;;;;;;9.73;8.48;;;18.80;99.90;;;;;;4957596;28;20065;-37
2023/09/18 01:15:56;;;;;;;9.52;8.05;;;18.80;99.90;;;;;;4972609;28;20038;-40
2023/09/18 01:18:24;;;;;;;9.45;8.00;;;18.80;99.90;;;;;;4977157;28;20039;-38
2023/09/18 01:20:52;;;;;;;9.00;7.95;;;18.70;99.90;;;;;;4987253;28;20063;-37
2023/09/18 01:23:19;;;;;;;9.52;8.52;;;18.70;99.90;;;;;;4967088;28;20106;-40
2023/09/18 01:25:47;;;;;;;9.45;8.43;;;18.70;99.90;;;;;;4972830;28;20066;-40
2023/09/18 01:28:16;;;;;;;10.93;8.85;;;18.70;99.90;;;;;;4973971;28;20423;-40
2023/09/18 01:30:44;;;;;;;10.52;8.20;;;18.60;99.90;;;;;;4970294;28;20043;-39
2023/09/18 01:33:12;;;;;;;9.13;8.23;;;18.60;99.90;;;;;;4953997;28;20570;-39
2023/09/18 01:35:40;;;;;;;9.25;8.13;;;18.60;99.90;;;;;;4952418;28;20053;-38
2023/09/18 01:38:10;;;;;;;8.98;8.07;;;18.60;99.90;;;;;;4972344;28;20073;-41
2023/09/18 01:40:38;;;;;;;10.43;7.57;;;18.60;99.90;;;;;;4970897;28;20150;-39
2023/09/18 01:43:06;;;;;;;9.43;7.97;;;18.60;99.90;;;;;;4973869;28;20059;-41
2023/09/18 01:45:34;;;;;;;9.60;8.00;;;18.50;99.90;;;;;;4953368;28;20408;-40
2023/09/18 01:48:05;;;;;;;10.35;8.35;;;18.50;99.90;;;;;;4972134;28;20445;-39
2023/09/18 01:50:33;;;;;;;9.10;7.85;;;18.50;99.90;;;;;;4969214;28;20041;-40
2023/09/18 01:53:00;;;;;;;11.45;8.25;;;18.40;99.90;;;;;;4971744;28;20042;-41
2023/09/18 01:55:29;;;;;;;8.90;8.00;;;18.40;99.90;;;;;;4970119;28;20050;-41
2023/09/18 01:57:57;;;;;;;8.77;7.88;;;18.40;99.90;;;;;;4953763;28;20046;-39
2023/09/18 02:00:24;;;;;;;9.02;8.02;;;18.30;99.90;;;;;;4955545;28;20158;-40
2023/09/18 02:02:53;;;;;;;8.27;7.47;;;18.30;99.90;;;;;;4980023;28;20070;-39
2023/09/18 02:05:41;;;;;;;9.80;8.50;;;18.30;99.90;;;;;;4980441;28;20069;-39
2023/09/18 02:08:09;;;;;;;8.80;7.90;;;18.40;99.90;;;;;;4986101;28;20047;-40
2023/09/18 02:10:37;;;;;;;8.52;7.50;;;18.40;99.90;;;;;;4986509;28;20057;-39
2023/09/18 02:13:04;;;;;;;9.07;8.18;;;18.30;99.90;;;;;;4962935;28;20061;-39
2023/09/18 02:15:32;;;;;;;8.77;7.88;;;18.30;99.90;;;;;;4971841;28;20121;-38
2023/09/18 02:17:59;;;;;;;8.95;8.05;;;18.40;99.90;;;;;;4953587;28;20055;-41
2023/09/18 02:20:27;;;;;;;8.57;7.68;;;18.40;99.90;;;;;;4971804;28;20047;-40
2023/09/18 02:22:54;;;;;;;10.38;8.32;;;18.30;99.90;;;;;;4972065;28;20126;-39
2023/09/18 02:25:21;;;;;;;10.00;8.43;;;18.30;99.90;;;;;;4970650;28;20051;-38
2023/09/18 02:27:49;;;;;;;9.80;7.82;;;18.30;99.90;;;;;;4972524;28;20861;-39
2023/09/18 02:30:19;;;;;;;9.10;8.10;;;18.30;99.90;;;;;;4952759;28;20046;-38
2023/09/18 02:32:46;;;;;;;10.32;8.32;;;18.30;99.90;;;;;;4967808;28;20054;-38
2023/09/18 02:35:14;;;;;;;9.20;8.23;;;18.30;99.90;;;;;;4970535;28;20039;-38
2023/09/18 02:37:41;;;;;;;12.60;8.48;;;18.20;99.90;;;;;;4953729;28;20075;-40
2023/09/18 02:40:09;;;;;;;9.50;7.63;;;18.30;99.90;;;;;;4967108;28;20128;-40
2023/09/18 02:42:36;;;;;;;8.85;7.95;;;18.20;99.90;;;;;;4970740;28;20673;-40
2023/09/18 02:45:05;;;;;;;9.25;7.28;;;18.20;99.90;;;;;;4965961;28;20050;-39
2023/09/18 02:47:33;;;;;;;9.10;7.93;;;18.20;99.90;;;;;;4968907;28;20070;-39
2023/09/18 02:50:01;;;;;;;9.70;7.97;;;18.20;99.90;;;;;;4952751;28;20043;-38
2023/09/18 02:52:29;;;;;;;10.73;8.52;;;18.20;99.90;;;;;;4967708;28;20465;-39
2023/09/18 02:54:56;;;;;;;9.15;8.10;;;18.20;99.90;;;;;;4971292;28;20159;-39
2023/09/18 02:57:24;;;;;;;9.05;7.85;;;18.10;99.90;;;;;;4966253;28;20155;-40
2023/09/18 02:59:51;;;;;;;9.30;8.07;;;18.10;99.90;;;;;;4952516;28;20047;-40
2023/09/18 03:02:19;;;;;;;8.63;7.60;;;18.10;99.90;;;;;;4948922;28;20559;-38
2023/09/18 03:04:46;;;;;;;9.15;8.25;;;18.10;99.90;;;;;;4969580;28;20610;-39
2023/09/18 03:07:13;;;;;;;9.10;8.20;;;18.10;99.90;;;;;;4950736;28;20156;-38
2023/09/18 03:09:41;;;;;;;8.90;8.00;;;18.10;99.90;;;;;;4969415;28;20142;-40
2023/09/18 03:12:08;;;;;;;8.70;7.72;;;18.10;99.90;;;;;;4952044;28;20035;-39
2023/09/18 03:14:36;;;;;;;9.90;8.05;;;18.10;99.90;;;;;;4968129;28;20519;-40
2023/09/18 03:17:03;;;;;;;9.45;8.45;;;18.10;99.90;;;;;;4952877;28;20070;-38
2023/09/18 03:19:30;;;;;;;10.30;8.75;;;18.10;99.90;;;;;;4953021;28;20039;-38
2023/09/18 03:21:58;;;;;;;9.77;8.50;;;18.10;99.90;;;;;;4965223;28;20420;-39
2023/09/18 03:24:26;;;;;;;10.05;8.05;;;18.10;99.90;;;;;;4955424;28;20054;-41
2023/09/18 03:26:54;;;;;;;9.30;8.30;;;18.10;99.90;;;;;;4984524;28;20138;-40
2023/09/18 03:29:21;;;;;;;10.00;8.65;;;18.10;99.90;;;;;;4961886;28;20189;-40
2023/09/18 03:31:48;;;;;;;10.13;8.15;;;18.10;99.90;;;;;;4975170;28;20419;-40
2023/09/18 03:34:16;;;;;;;10.95;8.07;;;18.10;99.90;;;;;;4959678;28;20054;-39
2023/09/18 03:36:44;;;;;;;9.05;7.75;;;18.00;99.90;;;;;;4980131;28;20038;-37
2023/09/18 03:39:11;;;;;;;11.85;8.43;;;18.00;99.90;;;;;;4961773;28;20079;-37
2023/09/18 03:41:39;;;;;;;10.57;8.23;;;18.00;99.90;;;;;;4952651;28;20057;-39
2023/09/18 03:44:06;;;;;;;10.85;8.95;;;18.00;99.90;;;;;;4968440;28;20230;-38
2023/09/18 03:46:34;;;;;;;11.75;8.57;;;18.00;99.90;;;;;;4968376;28;20117;-39
2023/09/18 03:49:02;;;;;;;12.25;8.60;;;18.00;99.90;;;;;;4951681;28;20047;-39
2023/09/18 03:51:32;;;;;;;9.40;8.17;;;17.90;99.90;;;;;;4950680;28;20130;-38
2023/09/18 03:53:59;;;;;;;9.75;8.75;;;17.90;99.90;;;;;;4971799;28;20053;-37
2023/09/18 03:56:27;;;;;;;9.68;8.50;;;17.90;99.90;;;;;;4951336;28;20126;-38
2023/09/18 03:58:57;;;;;;;11.45;8.90;;;17.90;99.90;;;;;;4953645;28;20051;-40
2023/09/18 04:01:24;;;;;;;10.05;8.55;;;17.90;99.90;;;;;;4952670;28;20105;-39
2023/09/18 04:03:53;;;;;;;9.43;8.05;;;17.90;99.90;;;;;;4970595;28;20062;-39
2023/09/18 04:06:24;;;;;;;10.85;8.18;;;17.90;99.90;;;;;;4950968;28;20555;-41
2023/09/18 04:08:51;;;;;;;10.55;8.73;;;17.90;99.90;;;;;;4970405;28;20561;-40
2023/09/18 04:11:26;;;;;;;10.20;8.68;;;18.00;99.90;;;;;;4954034;28;20052;-38
2023/09/18 04:13:53;;;;;;;10.45;8.32;;;18.00;99.90;;;;;;4973666;28;20051;-39
2023/09/18 04:16:20;;;;;;;9.25;8.35;;;18.00;99.90;;;;;;4976643;28;20435;-39
2023/09/18 04:18:48;;;;;;;10.52;9.18;;;18.10;99.90;;;;;;4955873;28;20444;-41
2023/09/18 04:21:16;;;;;;;10.40;7.75;;;18.10;99.90;;;;;;4952897;28;20516;-41
2023/09/18 04:23:43;;;;;;;10.32;7.53;;;18.10;99.90;;;;;;4952328;28;20046;-40
2023/09/18 04:26:13;;;;;;;10.35;8.70;;;18.10;99.90;;;;;;4954902;28;20146;-40
2023/09/18 04:28:40;;;;;;;10.57;8.68;;;18.20;99.90;;;;;;4976571;28;20109;-40
2023/09/18 04:31:07;;;;;;;9.60;8.52;;;18.20;99.90;;;;;;4959249;28;20103;-40
2023/09/18 04:33:35;;;;;;;10.13;8.95;;;18.30;99.90;;;;;;4958264;28;20383;-41
2023/09/18 04:36:02;;;;;;;10.35;9.15;;;18.20;99.90;;;;;;4974600;28;20375;-40
2023/09/18 04:38:30;;;;;;;9.70;8.70;;;18.20;99.90;;;;;;4954379;28;20046;-37
2023/09/18 04:40:59;;;;;;;9.55;8.30;;;18.30;99.90;;;;;;4972469;28;20121;-41
2023/09/18 04:43:29;;;;;;;10.80;8.55;;;18.40;99.90;;;;;;4955401;28;20051;-38
2023/09/18 04:45:57;;;;;;;10.50;9.02;;;18.40;99.90;;;;;;4955805;28;20051;-39
2023/09/18 04:48:25;;;;;;;11.75;9.27;;;18.40;99.90;;;;;;4955168;28;20419;-40
2023/09/18 04:50:52;;;;;;;9.45;8.32;;;18.50;99.90;;;;;;4952582;28;20070;-39
2023/09/18 04:53:20;;;;;;;9.98;8.65;;;18.60;99.90;;;;;;4952059;28;20047;-38
2023/09/18 04:55:49;;;;;;;13.20;8.90;;;18.60;99.90;;;;;;4978143;28;20054;-40
2023/09/18 04:58:17;;;;;;;12.10;9.05;;;18.70;99.90;;;;;;4978285;28;20549;-39
2023/09/18 05:00:46;;;;;;;12.40;8.88;;;18.70;99.90;;;;;;4979455;28;20456;-38
2023/09/18 05:03:14;;;;;;;10.85;8.55;;;18.80;99.90;;;;;;4960818;28;20545;-39
2023/09/18 05:05:44;;;;;;;8.88;7.72;;;18.90;99.90;;;;;;4960046;28;20085;-37
2023/09/18 05:08:11;;;;;;;10.10;8.25;;;19.00;99.90;;;;;;4974543;28;20484;-37
2023/09/18 05:10:38;;;;;;;10.13;8.05;;;19.00;99.90;;;;;;4976094;28;20444;-39
2023/09/18 05:13:06;;;;;;;10.32;8.43;;;19.10;99.90;;;;;;4973237;28;20047;-38
2023/09/18 05:15:35;;;;;;;8.93;8.00;;;19.00;99.90;;;;;;4978317;28;20046;-41
2023/09/18 05:18:03;;;;;;;10.15;8.50;;;19.00;99.90;;;;;;4973606;28;20051;-41
2023/09/18 05:20:31;;;;;;;9.55;8.20;;;19.00;99.90;;;;;;4972240;28;20042;-40
2023/09/18 05:23:00;;;;;;;8.07;7.00;;;19.00;99.90;;;;;;4969168;28;20574;-39
2023/09/18 05:25:32;;;;;;;10.80;7.78;;;19.10;99.90;;;;;;4970241;28;20047;-39
2023/09/18 05:28:01;;;;;;;10.32;7.40;;;19.10;99.90;;;;;;4975048;28;20051;-39
2023/09/18 05:30:34;;;;;;;9.25;7.75;;;19.20;99.90;;;;;;4972767;28;20063;-40
2023/09/18 05:33:04;;;;;;;9.07;7.93;;;19.30;99.90;;;;;;4973392;28;20073;-38
2023/09/18 05:35:33;;;;;;;9.43;8.18;;;19.30;99.90;;;;;;4962556;28;20531;-40
2023/09/18 05:38:01;;;;;;;15.02;8.60;;;19.30;99.90;;;;;;4967981;28;20066;-41
2023/09/18 05:40:29;;;;;;;10.77;8.95;;;19.20;99.90;;;;;;4968019;28;20099;-41
2023/09/18 05:42:57;;;;;;;14.45;9.15;;;19.20;99.90;;;;;;4969909;28;20058;-40
2023/09/18 05:45:26;;;;;;;12.27;8.35;;;19.10;99.90;;;;;;4969086;28;20082;-37
2023/09/18 05:48:01;;;;;;;11.70;9.27;;;19.10;99.90;;;;;;4971286;28;20051;-39
2023/09/18 05:50:30;;;;;;;12.48;8.65;;;19.10;99.90;;;;;;4970817;28;20643;-38
2023/09/18 05:53:03;;;;;;;12.15;9.02;;;19.00;99.90;;;;;;4968511;28;20053;-40
2023/09/18 05:55:32;;;;;;;11.75;8.60;;;19.10;99.90;;;;;;4972358;28;20038;-41
2023/09/18 05:58:01;;;;;;;11.35;8.75;;;19.10;99.90;;;;;;4969567;28;20054;-37
2023/09/18 06:00:30;;;;;;;13.27;8.90;;;19.20;99.90;;;;;;4969246;28;20102;-38
2023/09/18 06:02:58;;;;;;;13.65;10.55;;;19.30;99.90;;;;;;4971645;28;20042;-38
2023/09/18 06:05:26;;;;;;;15.57;10.45;;;19.40;99.90;;;;;;4971921;28;20038;-39
2023/09/18 06:07:54;;;;;;;12.50;8.48;;;19.60;99.90;;;;;;4972660;28;20046;-37
2023/09/18 06:10:21;;;;;;;13.52;9.63;;;19.70;99.90;;;;;;4974220;28;20049;-38
2023/09/18 06:12:48;;;;;;;14.25;10.25;;;19.80;99.90;;;;;;4972972;28;20046;-40
2023/09/18 06:15:16;;;;;;;14.32;9.70;;;19.90;99.90;;;;;;4972641;28;20076;-41
2023/09/18 06:17:43;;;;;;;12.38;9.68;;;20.00;99.90;;;;;;4972119;28;20629;-40
2023/09/18 06:20:15;;;;;;;10.23;9.00;;;20.00;99.90;;;;;;4977416;28;20552;-43
2023/09/18 06:22:43;;;;;;;10.35;8.57;;;20.10;99.90;;;;;;4972749;28;20054;-42
2023/09/18 06:25:11;;;;;;;13.30;9.82;;;20.10;99.90;;;;;;4969056;28;20050;-43
2023/09/18 06:27:38;;;;;;;9.73;8.73;;;20.20;99.90;;;;;;4968956;28;20054;-45
2023/09/18 06:30:06;;;;;;;18.95;8.65;;;20.30;99.90;;;;;;4971113;28;20054;-46
2023/09/18 06:32:34;;;;;;;11.18;8.85;;;20.40;99.90;;;;;;4971490;28;20566;-40
2023/09/18 06:35:02;;;;;;;10.65;9.10;;;20.50;99.90;;;;;;4972012;28;20053;-43
2023/09/18 06:37:30;;;;;;;11.90;8.77;;;20.60;99.90;;;;;;4971204;28;20121;-41
2023/09/18 06:39:58;;;;;;;15.50;8.85;;;20.70;99.90;;;;;;4970437;28;20490;-44
2023/09/18 06:42:25;;;;;;;13.88;8.88;;;20.90;99.90;;;;;;4967713;28;20113;-45
2023/09/18 06:44:59;;;;;;;16.08;10.88;;;21.10;99.90;;;;;;4974783;28;20073;-46
2023/09/18 06:47:26;;;;;;;12.27;8.50;;;21.30;99.90;;;;;;4973361;28;20125;-45
2023/09/18 06:49:53;;;;;;;12.18;8.40;;;21.30;99.90;;;;;;4973062;28;20051;-42
2023/09/18 06:52:21;;;;;;;13.77;8.68;;;21.30;99.90;;;;;;4975525;28;20043;-45
2023/09/18 06:54:48;;;;;;;12.18;9.13;;;21.20;99.90;;;;;;4957111;28;20070;-41
2023/09/18 06:57:15;;;;;;;11.32;8.50;;;21.20;99.90;;;;;;4971823;28;20046;-44
2023/09/18 06:59:42;;;;;;;13.98;9.15;;;21.20;99.90;;;;;;4974033;28;20559;-45
2023/09/18 07:02:10;;;;;;;11.70;8.63;;;21.30;99.90;;;;;;4973901;28;20097;-46
2023/09/18 07:04:44;;;;;;;10.35;8.80;;;21.40;99.90;;;;;;4976874;28;20066;-46
2023/09/18 07:07:16;;;;;;;11.70;10.13;;;21.50;99.90;;;;;;4972563;28;20050;-44
2023/09/18 07:09:43;;;;;;;14.93;10.55;;;21.70;99.90;;;;;;4977549;28;20134;-43
2023/09/18 07:12:31;;;;;;;17.20;8.98;;;21.90;99.90;;;;;;4974809;28;20047;-44
2023/09/18 07:15:02;;;;;;;13.77;9.68;;;21.80;99.90;;;;;;4974392;28;20055;-46
2023/09/18 07:17:30;;;;;;;19.98;13.60;;;21.80;99.90;;;;;;4969968;28;20066;-45
2023/09/18 07:19:59;;;;;;;13.10;9.35;;;22.00;99.90;;;;;;4968183;28;20065;-44
2023/09/18 07:22:26;;;;;;;26.40;8.88;;;22.00;99.90;;;;;;4967955;28;20141;-45
2023/09/18 07:24:56;;;;;;;9.65;8.65;;;22.30;99.90;;;;;;4969732;28;20074;-42
2023/09/18 07:27:24;;;;;;;9.90;8.77;;;22.60;99.90;;;;;;4968298;28;20070;-45
2023/09/18 07:29:51;;;;;;;10.85;8.23;;;22.80;99.90;;;;;;4966974;28;20082;-41
2023/09/18 07:32:20;;;;;;;9.50;8.25;;;23.00;99.90;;;;;;4968064;28;20051;-42
2023/09/18 07:35:04;;;;;;;10.02;8.45;;;23.10;99.90;;;;;;4964973;28;20054;-46
2023/09/18 07:37:32;;;;;;;8.32;7.53;;;23.20;99.90;;;;;;4967560;28;20057;-43
2023/09/18 07:39:59;;;;;;;10.82;7.90;;;23.40;99.90;;;;;;4966692;28;20078;-45
2023/09/18 07:42:27;;;;;;;12.00;7.93;;;23.50;99.90;;;;;;4967261;28;20055;-43
2023/09/18 07:44:54;;;;;;;12.05;8.10;;;23.40;99.90;;;;;;4966869;28;20054;-43
2023/09/18 07:47:25;;;;;;;11.43;8.30;;;23.40;99.90;;;;;;4967889;28;20142;-42
2023/09/18 07:49:54;;;;;;;9.60;8.18;;;23.50;99.90;;;;;;4970548;28;20035;-43
2023/09/18 07:52:21;;;;;;;11.10;8.05;;;23.50;99.90;;;;;;4973013;28;20479;-43
2023/09/18 07:54:49;;;;;;;8.73;7.82;;;23.50;99.90;;;;;;4972555;28;20043;-44
2023/09/18 07:57:16;;;;;;;9.05;8.02;;;23.50;99.90;;;;;;4972335;28;20047;-49
2023/09/18 07:59:44;;;;;;;10.73;8.32;;;23.60;99.90;;;;;;4971854;28;20125;-44
2023/09/18 08:02:11;;;;;;;9.88;8.30;;;23.60;99.90;;;;;;4972992;28;20051;-45
2023/09/18 08:04:39;;;;;;;11.68;9.38;;;23.50;99.90;;;;;;4974135;28;20059;-41
2023/09/18 08:07:07;;;;;;;10.88;8.45;;;23.70;99.90;;;;;;4973224;28;20078;-42
2023/09/18 08:09:38;;;;;;;12.40;8.23;;;23.80;99.90;;;;;;4956327;28;20085;-45
2023/09/18 08:12:08;;;;;;;11.30;8.52;;;23.70;99.90;;;;;;4971495;28;20067;-43
2023/09/18 08:14:36;;;;;;;11.88;8.70;;;23.80;99.90;;;;;;4969944;28;20054;-45
2023/09/18 08:17:04;;;;;;;13.00;8.73;;;23.90;99.90;;;;;;4970090;28;20058;-47
2023/09/18 08:19:37;;;;;;;12.85;9.98;;;23.90;99.90;;;;;;4970477;28;20512;-43
2023/09/18 08:22:04;;;;;;;14.10;10.55;;;24.20;99.90;;;;;;4971403;28;20378;-44
2023/09/18 08:24:32;;;;;;;13.38;9.60;;;24.40;99.90;;;;;;4971173;28;20133;-46
2023/09/18 08:26:59;;;;;;;19.35;9.65;;;24.80;99.90;;;;;;4972107;28;20594;-45
2023/09/18 08:29:28;;;;;;;13.45;9.38;;;25.10;99.90;;;;;;4970252;28;20057;-46
2023/09/18 08:31:56;;;;;;;10.48;8.50;;;25.30;99.90;;;;;;4971186;28;20146;-46
2023/09/18 08:34:23;;;;;;;13.90;8.95;;;25.30;99.90;;;;;;4969949;28;20051;-44
2023/09/18 08:36:54;;;;;;;11.93;8.75;;;25.40;99.90;;;;;;4971233;28;20077;-45
2023/09/18 08:39:21;;;;;;;10.82;8.48;;;25.40;99.90;;;;;;4954125;28;20488;-46
2023/09/18 08:41:51;;;;;;;14.63;9.15;;;25.30;99.90;;;;;;4970757;28;20066;-45
2023/09/18 08:44:19;;;;;;;13.60;8.25;;;25.30;99.90;;;;;;4972833;28;20051;-45
2023/09/18 08:46:46;;;;;;;15.73;9.43;;;25.30;99.90;;;;;;4968913;28;20058;-43
2023/09/18 08:49:14;;;;;;;15.65;9.40;;;25.30;99.90;;;;;;4970451;28;20138;-45
2023/09/18 08:51:43;;;;;;;14.15;9.15;;;25.30;99.90;;;;;;4971881;28;20081;-45
2023/09/18 08:54:11;;;;;;;12.00;7.80;;;25.30;99.90;;;;;;4971156;28;20034;-45
2023/09/18 08:56:38;;;;;;;18.45;7.97;;;25.50;99.90;;;;;;4973313;28;20113;-45
2023/09/18 08:59:06;;;;;;;11.15;8.23;;;25.90;99.90;;;;;;4966532;28;20078;-43
2023/09/18 09:01:33;;;;;;;13.27;8.10;;;26.00;99.90;;;;;;4970186;28;20453;-43
2023/09/18 09:04:00;;;;;;;12.23;7.72;;;26.40;99.90;;;;;;4970082;28;20062;-46
2023/09/18 09:06:28;;;;;;;12.38;8.48;;;26.60;99.90;;;;;;4970419;28;20075;-45
2023/09/18 09:08:55;;;;;;;11.95;8.50;;;26.80;99.90;;;;;;4969255;28;20530;-44
2023/09/18 09:11:23;;;;;;;12.25;8.30;;;26.80;99.90;;;;;;4968641;28;20053;-43
2023/09/18 09:14:11;;;;;;;9.75;8.38;;;26.70;99.90;;;;;;4972205;28;20043;-46
2023/09/18 09:16:40;;;;;;;13.00;7.70;;;26.40;99.90;;;;;;4973540;28;20041;-42
2023/09/18 09:19:07;;;;;;;12.60;7.70;;;26.60;99.90;;;;;;4968679;28;20510;-44
2023/09/18 09:21:43;;;;;;;10.48;7.80;;;26.30;99.90;;;;;;4970429;28;20379;-43
2023/09/18 09:24:14;;;;;;;11.88;7.53;;;26.10;99.90;;;;;;4970202;28;20053;-44
2023/09/18 09:26:42;;;;;;;9.35;7.45;;;26.00;99.90;;;;;;4971777;28;20121;-44
2023/09/18 09:29:18;;;;;;;13.05;8.13;;;25.90;99.90;;;;;;4968338;28;20094;-45
2023/09/18 09:31:46;;;;;;;11.55;7.63;;;25.90;99.90;;;;;;4966458;28;20042;-48
2023/09/18 09:34:30;;;;;;;11.50;7.85;;;26.00;99.90;;;;;;4967147;28;20070;-45
2023/09/18 09:37:00;;;;;;;9.43;7.25;;;26.40;99.90;;;;;;4969817;28;20121;-45
2023/09/18 09:39:27;;;;;;;11.02;8.25;;;26.50;99.90;;;;;;4967917;28;20509;-46
2023/09/18 09:41:55;;;;;;;11.35;7.50;;;26.10;99.90;;;;;;4969830;28;20515;-46
2023/09/18 09:44:23;;;;;;;10.45;7.47;;;26.30;99.90;;;;;;4967967;28;20057;-44
2023/09/18 09:46:51;;;;;;;14.05;8.35;;;26.30;99.90;;;;;;4969325;28;20047;-44
2023/09/18 09:49:23;;;;;;;12.00;7.93;;;26.60;99.90;;;;;;4969547;28;20064;-43
2023/09/18 09:51:51;;;;;;;10.02;7.50;;;26.80;99.90;;;;;;4968702;28;20050;-43
2023/09/18 09:54:34;;;;;;;11.15;7.30;;;26.80;99.90;;;;;;4972389;28;20047;-45
2023/09/18 09:57:05;;;;;;;10.68;7.70;;;27.00;99.90;;;;;;4974803;28;20043;-43
2023/09/18 09:59:35;;;;;;;11.63;7.43;;;26.80;99.90;;;;;;4968516;28;20467;-42
2023/09/18 10:02:03;;;;;;;12.50;7.88;;;26.90;99.90;;;;;;4970325;28;20405;-42
2023/09/18 10:04:34;;;;;;;9.18;7.60;;;27.30;99.90;;;;;;4972464;28;20065;-44
2023/09/18 10:07:08;;;;;;;23.00;7.68;;;27.40;99.90;;;;;;4971453;28;20137;-44
2023/09/18 10:09:39;;;;;;;9.02;7.38;;;27.50;99.90;;;;;;4966855;28;20042;-45
2023/09/18 10:12:24;;;;;;;11.15;6.72;;;27.20;99.90;;;;;;4968205;28;20389;-42
2023/09/18 10:14:55;;;;;;;8.77;6.63;;;27.00;99.90;;;;;;4948825;28;20051;-43
2023/09/18 10:17:30;;;;;;;10.75;7.07;;;27.00;99.90;;;;;;4970981;28;20055;-44
2023/09/18 10:20:21;;;;;;;11.40;7.20;;;26.80;99.90;;;;;;4969117;28;20484;-39
2023/09/18 10:22:53;;;;;;;13.80;7.18;;;26.70;99.90;;;;;;4967965;28;20043;-39
2023/09/18 10:25:24;;;;;;;15.43;7.32;;;26.50;99.90;;;;;;4971252;28;20061;-39
2023/09/18 10:27:58;;;;;;;16.40;7.15;;;26.60;99.90;;;;;;4956041;28;20054;-39
2023/09/18 10:30:26;;;;;;;11.68;6.47;;;26.50;99.90;;;;;;4974881;28;20038;-40
2023/09/18 10:32:55;;;;;;;11.10;6.50;;;26.60;99.90;;;;;;4973401;28;20491;-40
2023/09/18 10:35:22;;;;;;;9.70;6.63;;;26.60;99.90;;;;;;4970360;28;20035;-38
2023/09/18 10:37:51;;;;;;;11.73;6.82;;;26.50;99.90;;;;;;4975363;28;20050;-40
2023/09/18 10:40:20;;;;;;;9.93;6.70;;;26.40;99.90;;;;;;4974650;28;20038;-40
2023/09/18 10:42:50;;;;;;;10.48;6.82;;;26.50;99.90;;;;;;4972094;28;20124;-41
2023/09/18 10:45:17;;;;;;;8.93;6.82;;;26.60;99.90;;;;;;4974083;28;20054;-39
2023/09/18 10:47:47;;;;;;;10.98;6.97;;;26.60;99.90;;;;;;4973104;28;20511;-42
2023/09/18 10:50:34;;;;;;;12.45;7.25;;;26.80;99.90;;;;;;4969733;28;20499;-40
2023/09/18 10:53:02;;;;;;;10.90;6.57;;;26.80;99.90;;;;;;4972467;28;20051;-41
2023/09/18 10:55:29;;;;;;;15.35;6.47;;;26.70;99.90;;;;;;4972867;28;20078;-40
2023/09/18 10:57:58;;;;;;;18.67;7.05;;;26.50;99.90;;;;;;4971040;28;20507;-44
2023/09/18 11:00:30;;;;;;;11.02;6.60;;;26.30;99.90;;;;;;4972324;28;20046;-42
2023/09/18 11:03:13;;;;;;;10.05;6.35;;;26.00;99.90;;;;;;4970518;28;20389;-40
2023/09/18 11:05:41;;;;;;;10.70;5.90;;;25.90;99.90;;;;;;4969304;28;20518;-38
2023/09/18 11:08:29;;;;;;;15.98;5.90;;;25.70;99.90;;;;;;4973996;28;20058;-37
2023/09/18 11:11:09;;;;;;;9.55;6.07;;;25.60;99.90;;;;;;4967165;28;20053;-41
2023/09/18 11:13:50;;;;;;;10.32;6.13;;;25.50;99.90;;;;;;4969686;28;20038;-38
2023/09/18 11:16:26;;;;;;;8.27;5.90;;;25.30;99.90;;;;;;4972517;28;20034;-39
2023/09/18 11:19:00;;;;;;;7.75;5.85;;;25.40;99.90;;;;;;4970324;28;20050;-38
2023/09/18 11:21:30;;;;;;;7.70;6.07;;;25.30;99.90;;;;;;4973374;28;20047;-41
2023/09/18 11:24:15;;;;;;;7.40;6.00;;;25.20;99.90;;;;;;4971404;28;20073;-42
2023/09/18 11:26:45;;;;;;;8.02;5.60;;;25.10;99.90;;;;;;4971910;28;20054;-38
2023/09/18 11:29:23;;;;;;;9.48;6.30;;;25.00;99.90;;;;;;4971025;28;20413;-41
2023/09/18 11:31:56;;;;;;;6.47;5.30;;;24.80;99.90;;;;;;4951960;28;20110;-39
2023/09/18 11:34:35;;;;;;;5.90;5.30;;;24.70;99.90;;;;;;4971492;28;20047;-39
2023/09/18 11:37:20;;;;;;;10.13;5.45;;;24.50;99.90;;;;;;4962579;28;20039;-41
2023/09/18 11:39:47;;;;;;;6.78;5.22;;;24.50;99.90;;;;;;4966825;28;20047;-40
2023/09/18 11:42:19;;;;;;;8.77;5.80;;;24.40;99.90;;;;;;4974286;28;20050;-39
2023/09/18 11:44:47;;;;;;;7.05;5.43;;;24.50;99.90;;;;;;4976668;28;20065;-39
2023/09/18 11:47:21;;;;;;;8.32;5.55;;;24.50;99.90;;;;;;4978182;28;20042;-39
2023/09/18 11:49:57;;;;;;;6.28;5.40;;;24.40;99.90;;;;;;4982117;28;20452;-41
2023/09/18 11:52:28;;;;;;;8.23;5.20;;;24.30;99.90;;;;;;4973075;28;20526;-37
2023/09/18 11:54:59;;;;;;;5.65;4.95;;;24.20;99.90;;;;;;4970618;28;20460;-41
2023/09/18 11:57:28;;;;;;;8.68;5.40;;;24.20;99.90;;;;;;4969900;28;20460;-41
2023/09/18 11:59:59;;;;;;;8.52;5.30;;;24.00;99.90;;;;;;4967394;28;20168;-39
2023/09/18 12:02:41;;;;;;;7.05;4.57;;;23.90;99.90;;;;;;4969917;28;20169;-39
2023/09/18 12:05:15;;;;;;;7.20;5.28;;;23.90;99.90;;;;;;4971579;28;20279;-42
2023/09/18 12:07:47;;;;;;;11.68;4.97;;;23.80;99.90;;;;;;4969939;28;20519;-39
2023/09/18 12:10:15;;;;;;;;;;;23.80;99.90;;;;;;4973721;28;20541;-37
2023/09/18 12:12:43;;;;;;;5.93;5.05;;;23.60;99.90;;;;;;4977585;28;19977;-38
2023/09/18 12:15:16;;;;;;;9.07;5.13;;;23.50;99.90;;;;;;4973866;28;20047;-40
2023/09/18 12:17:45;;;;;;;5.47;4.82;;;23.20;99.90;;;;;;4972125;28;20130;-44
2023/09/18 12:20:20;;;;;;;9.63;5.18;;;22.90;99.90;;;;;;4971431;28;20054;-42
2023/09/18 12:22:50;;;;;;;7.70;5.22;;;22.60;99.90;;;;;;4951362;28;20356;-41
2023/09/18 12:25:23;;;;;;;6.05;4.88;;;22.40;99.90;;;;;;4968285;28;20064;-41
2023/09/18 12:27:55;;;;;;;7.05;4.85;;;22.30;99.90;;;;;;4968307;28;20511;-42
2023/09/18 12:30:23;;;;;;;7.18;4.55;;;21.90;99.90;;;;;;4971545;28;20423;-35
2023/09/18 12:32:52;;;;;;;6.68;4.82;;;21.60;99.90;;;;;;4970220;28;20404;-40
2023/09/18 12:35:21;;;;;;;7.65;4.20;;;21.40;99.90;;;;;;4972399;28;20575;-45
2023/09/18 12:37:49;;;;;;;8.90;4.57;;;21.20;99.90;;;;;;4957237;28;20097;-41
2023/09/18 12:40:32;;;;;;;7.45;4.10;;;20.90;99.90;;;;;;4955492;28;20089;-40
2023/09/18 12:43:01;;;;;;;7.65;4.32;;;20.70;99.90;;;;;;4970992;28;20054;-42
2023/09/18 12:45:29;;;;;;;6.18;3.83;;;20.50;99.90;;;;;;4975396;28;20560;-42
2023/09/18 12:47:58;;;;;;;6.70;3.40;;;20.40;99.90;;;;;;4977077;28;20125;-40
2023/09/18 12:50:26;;;;;;;6.30;3.50;;;20.20;99.90;;;;;;4976894;28;20054;-44
2023/09/18 12:52:53;;;;;;;6.78;3.35;;;20.10;99.90;;;;;;4975503;28;20058;-42